sensor_id;sensor_type;location;lat;lon;timestamp;temperature;humidity
18753;DHT22;9505;50.882;5.350;2023-02-15T00:01:51;0.10;99.90
18753;DHT22;9505;50.882;5.350;2023-02-15T00:04:19;0.10;99.90
18753;DHT22;9505;50.882;5.350;2023-02-15T00:06:45;0.00;99.90
18753;DHT22;9505;50.882;5.350;2023-02-15T00:09:11;0.00;99.90
18753;DHT22;9505;50.882;5.350;2023-02-15T00:11:37;0.00;99.90
18753;DHT22;9505;50.882;5.350;2023-02-15T00:14:08;0.00;99.90
18753;DHT22;9505;50.882;5.350;2023-02-15T00:16:34;0.00;99.90
18753;DHT22;9505;50.882;5.350;2023-02-15T00:19:00;0.00;99.90
18753;DHT22;9505;50.882;5.350;2023-02-15T00:21:30;0.00;99.90
18753;DHT22;9505;50.882;5.350;2023-02-15T00:23:58;0.00;99.90
18753;DHT22;9505;50.882;5.350;2023-02-15T00:26:24;0.00;99.90
18753;DHT22;9505;50.882;5.350;2023-02-15T00:28:50;0.00;99.90
18753;DHT22;9505;50.882;5.350;2023-02-15T00:31:16;0.00;99.90
18753;DHT22;9505;50.882;5.350;2023-02-15T00:33:42;0.00;99.90
18753;DHT22;9505;50.882;5.350;2023-02-15T00:36:08;-0.10;99.90
18753;DHT22;9505;50.882;5.350;2023-02-15T00:38:35;-0.10;99.90
18753;DHT22;9505;50.882;5.350;2023-02-15T00:41:03;-0.10;99.90
18753;DHT22;9505;50.882;5.350;2023-02-15T00:43:30;-0.10;99.90
18753;DHT22;9505;50.882;5.350;2023-02-15T00:45:56;-0.10;99.90
18753;DHT22;9505;50.882;5.350;2023-02-15T00:48:22;-0.10;99.90
18753;DHT22;9505;50.882;5.350;2023-02-15T00:50:56;-0.10;99.90
18753;DHT22;9505;50.882;5.350;2023-02-15T00:53:23;-0.10;99.90
18753;DHT22;9505;50.882;5.350;2023-02-15T00:55:49;-0.10;99.90
18753;DHT22;9505;50.882;5.350;2023-02-15T00:58:15;-0.10;99.90
18753;DHT22;9505;50.882;5.350;2023-02-15T01:00:43;-0.20;99.90
18753;DHT22;9505;50.882;5.350;2023-02-15T01:03:10;-0.30;99.90
18753;DHT22;9505;50.882;5.350;2023-02-15T01:05:36;-0.30;99.90
18753;DHT22;9505;50.882;5.350;2023-02-15T01:08:02;-0.30;99.90
18753;DHT22;9505;50.882;5.350;2023-02-15T01:10:28;-0.30;99.90
18753;DHT22;9505;50.882;5.350;2023-02-15T01:12:55;-0.40;99.90
18753;DHT22;9505;50.882;5.350;2023-02-15T01:15:21;-0.40;99.90
18753;DHT22;9505;50.882;5.350;2023-02-15T01:17:46;-0.50;99.90
18753;DHT22;9505;50.882;5.350;2023-02-15T01:20:25;-0.50;99.90
18753;DHT22;9505;50.882;5.350;2023-02-15T01:22:54;-0.60;99.90
18753;DHT22;9505;50.882;5.350;2023-02-15T01:25:22;-0.60;99.90
18753;DHT22;9505;50.882;5.350;2023-02-15T01:27:48;-0.60;99.90
18753;DHT22;9505;50.882;5.350;2023-02-15T01:30:14;-0.60;99.90
18753;DHT22;9505;50.882;5.350;2023-02-15T01:32:41;-0.60;99.90
18753;DHT22;9505;50.882;5.350;2023-02-15T01:35:08;-0.60;99.90
18753;DHT22;9505;50.882;5.350;2023-02-15T01:37:34;-0.60;99.90
18753;DHT22;9505;50.882;5.350;2023-02-15T01:40:01;-0.60;99.90
18753;DHT22;9505;50.882;5.350;2023-02-15T01:42:28;-0.60;99.90
18753;DHT22;9505;50.882;5.350;2023-02-15T01:45:02;-0.60;99.90
18753;DHT22;9505;50.882;5.350;2023-02-15T01:47:41;-0.50;99.90
18753;DHT22;9505;50.882;5.350;2023-02-15T01:50:18;-0.60;99.90
18753;DHT22;9505;50.882;5.350;2023-02-15T01:55:30;-0.70;99.90
18753;DHT22;9505;50.882;5.350;2023-02-15T01:57:58;-0.70;99.90
18753;DHT22;9505;50.882;5.350;2023-02-15T02:00:24;-0.80;99.90
18753;DHT22;9505;50.882;5.350;2023-02-15T02:02:53;-0.80;99.90
18753;DHT22;9505;50.882;5.350;2023-02-15T02:05:20;-0.80;99.90
18753;DHT22;9505;50.882;5.350;2023-02-15T02:07:46;-0.80;99.90
18753;DHT22;9505;50.882;5.350;2023-02-15T02:10:18;-0.80;99.90
18753;DHT22;9505;50.882;5.350;2023-02-15T02:12:45;-0.90;99.90
18753;DHT22;9505;50.882;5.350;2023-02-15T02:15:12;-0.90;99.90
18753;DHT22;9505;50.882;5.350;2023-02-15T02:20:39;-0.90;99.90
18753;DHT22;9505;50.882;5.350;2023-02-15T02:33:53;-1.00;99.90
18753;DHT22;9505;50.882;5.350;2023-02-15T02:42:09;-1.00;99.90
18753;DHT22;9505;50.882;5.350;2023-02-15T02:44:41;-1.10;99.90
18753;DHT22;9505;50.882;5.350;2023-02-15T02:47:26;-1.10;99.90
18753;DHT22;9505;50.882;5.350;2023-02-15T02:49:59;-1.10;99.90
18753;DHT22;9505;50.882;5.350;2023-02-15T02:57:38;-1.10;99.90
18753;DHT22;9505;50.882;5.350;2023-02-15T03:00:08;-1.10;99.90
18753;DHT22;9505;50.882;5.350;2023-02-15T03:02:38;-1.10;99.90
18753;DHT22;9505;50.882;5.350;2023-02-15T03:05:11;-1.20;99.90
18753;DHT22;9505;50.882;5.350;2023-02-15T03:07:39;-1.20;99.90
18753;DHT22;9505;50.882;5.350;2023-02-15T03:10:08;-1.20;99.90
18753;DHT22;9505;50.882;5.350;2023-02-15T03:12:36;-1.20;99.90
18753;DHT22;9505;50.882;5.350;2023-02-15T03:15:16;-1.20;99.90
18753;DHT22;9505;50.882;5.350;2023-02-15T03:17:45;-1.20;99.90
18753;DHT22;9505;50.882;5.350;2023-02-15T03:20:20;-1.20;99.90
18753;DHT22;9505;50.882;5.350;2023-02-15T03:23:13;-1.20;99.90
18753;DHT22;9505;50.882;5.350;2023-02-15T03:25:44;-1.30;99.90
18753;DHT22;9505;50.882;5.350;2023-02-15T03:28:18;-1.30;99.90
18753;DHT22;9505;50.882;5.350;2023-02-15T03:30:47;-1.30;99.90
18753;DHT22;9505;50.882;5.350;2023-02-15T03:33:15;-1.30;99.90
18753;DHT22;9505;50.882;5.350;2023-02-15T03:35:48;-1.30;99.90
18753;DHT22;9505;50.882;5.350;2023-02-15T03:38:20;-1.40;99.90
18753;DHT22;9505;50.882;5.350;2023-02-15T03:40:47;-1.40;99.90
18753;DHT22;9505;50.882;5.350;2023-02-15T03:43:57;-1.40;99.90
18753;DHT22;9505;50.882;5.350;2023-02-15T03:46:47;-1.40;99.90
18753;DHT22;9505;50.882;5.350;2023-02-15T03:50:06;-1.40;99.90
18753;DHT22;9505;50.882;5.350;2023-02-15T03:52:07;-1.50;99.90
18753;DHT22;9505;50.882;5.350;2023-02-15T03:54:35;-1.50;99.90
18753;DHT22;9505;50.882;5.350;2023-02-15T04:03:11;-1.50;99.90
18753;DHT22;9505;50.882;5.350;2023-02-15T04:05:38;-1.50;99.90
18753;DHT22;9505;50.882;5.350;2023-02-15T04:08:03;-1.50;99.90
18753;DHT22;9505;50.882;5.350;2023-02-15T04:10:29;-1.50;99.90
18753;DHT22;9505;50.882;5.350;2023-02-15T04:13:13;-1.50;99.90
18753;DHT22;9505;50.882;5.350;2023-02-15T04:15:39;-1.50;99.90
18753;DHT22;9505;50.882;5.350;2023-02-15T04:18:24;-1.50;99.90
18753;DHT22;9505;50.882;5.350;2023-02-15T04:21:08;-1.50;99.90
18753;DHT22;9505;50.882;5.350;2023-02-15T04:23:52;-1.50;99.90
18753;DHT22;9505;50.882;5.350;2023-02-15T04:26:36;-1.40;99.90
18753;DHT22;9505;50.882;5.350;2023-02-15T04:29:02;-1.30;99.90
18753;DHT22;9505;50.882;5.350;2023-02-15T04:31:28;-1.20;99.90
18753;DHT22;9505;50.882;5.350;2023-02-15T04:33:53;-1.20;99.90
18753;DHT22;9505;50.882;5.350;2023-02-15T04:36:19;-1.10;99.90
18753;DHT22;9505;50.882;5.350;2023-02-15T04:38:44;-1.20;99.90
18753;DHT22;9505;50.882;5.350;2023-02-15T04:41:10;-1.30;99.90
18753;DHT22;9505;50.882;5.350;2023-02-15T04:43:37;-1.30;99.90
18753;DHT22;9505;50.882;5.350;2023-02-15T04:46:03;-1.30;99.90
18753;DHT22;9505;50.882;5.350;2023-02-15T04:48:29;-1.30;99.90
18753;DHT22;9505;50.882;5.350;2023-02-15T04:50:54;-1.40;99.90
18753;DHT22;9505;50.882;5.350;2023-02-15T04:53:20;-1.40;99.90
18753;DHT22;9505;50.882;5.350;2023-02-15T04:55:45;-1.50;99.90
18753;DHT22;9505;50.882;5.350;2023-02-15T04:58:11;-1.50;99.90
18753;DHT22;9505;50.882;5.350;2023-02-15T05:00:37;-1.50;99.90
18753;DHT22;9505;50.882;5.350;2023-02-15T05:03:02;-1.50;99.90
18753;DHT22;9505;50.882;5.350;2023-02-15T05:05:28;-1.50;99.90
18753;DHT22;9505;50.882;5.350;2023-02-15T05:07:54;-1.50;99.90
18753;DHT22;9505;50.882;5.350;2023-02-15T05:10:19;-1.50;99.90
18753;DHT22;9505;50.882;5.350;2023-02-15T05:12:45;-1.60;99.90
18753;DHT22;9505;50.882;5.350;2023-02-15T05:15:10;-1.60;99.90
18753;DHT22;9505;50.882;5.350;2023-02-15T05:17:36;-1.60;99.90
18753;DHT22;9505;50.882;5.350;2023-02-15T05:20:03;-1.60;99.90
18753;DHT22;9505;50.882;5.350;2023-02-15T05:22:29;-1.60;99.90
18753;DHT22;9505;50.882;5.350;2023-02-15T05:24:54;-1.70;99.90
18753;DHT22;9505;50.882;5.350;2023-02-15T05:27:38;-1.70;99.90
18753;DHT22;9505;50.882;5.350;2023-02-15T05:30:22;-1.70;99.90
18753;DHT22;9505;50.882;5.350;2023-02-15T05:32:48;-1.80;99.90
18753;DHT22;9505;50.882;5.350;2023-02-15T05:35:15;-1.70;99.90
18753;DHT22;9505;50.882;5.350;2023-02-15T05:37:41;-1.70;99.90
18753;DHT22;9505;50.882;5.350;2023-02-15T05:40:07;-1.70;99.90
18753;DHT22;9505;50.882;5.350;2023-02-15T05:42:33;-1.70;99.90
18753;DHT22;9505;50.882;5.350;2023-02-15T05:44:59;-1.70;99.90
18753;DHT22;9505;50.882;5.350;2023-02-15T05:47:24;-1.70;99.90
18753;DHT22;9505;50.882;5.350;2023-02-15T05:49:50;-1.70;99.90
18753;DHT22;9505;50.882;5.350;2023-02-15T05:52:16;-1.70;99.90
18753;DHT22;9505;50.882;5.350;2023-02-15T05:54:41;-1.70;99.90
18753;DHT22;9505;50.882;5.350;2023-02-15T05:57:07;-1.70;99.90
18753;DHT22;9505;50.882;5.350;2023-02-15T05:59:32;-1.70;99.90
18753;DHT22;9505;50.882;5.350;2023-02-15T06:01:58;-1.60;99.90
18753;DHT22;9505;50.882;5.350;2023-02-15T06:04:24;-1.60;99.90
18753;DHT22;9505;50.882;5.350;2023-02-15T06:06:49;-1.70;99.90
18753;DHT22;9505;50.882;5.350;2023-02-15T06:09:15;-1.70;99.90
18753;DHT22;9505;50.882;5.350;2023-02-15T06:11:44;-1.70;99.90
18753;DHT22;9505;50.882;5.350;2023-02-15T06:14:09;-1.70;99.90
18753;DHT22;9505;50.882;5.350;2023-02-15T06:16:35;-1.70;99.90
18753;DHT22;9505;50.882;5.350;2023-02-15T06:19:00;-1.80;99.90
18753;DHT22;9505;50.882;5.350;2023-02-15T06:21:27;-1.70;99.90
18753;DHT22;9505;50.882;5.350;2023-02-15T06:23:53;-1.70;99.90
18753;DHT22;9505;50.882;5.350;2023-02-15T06:26:18;-1.80;99.90
18753;DHT22;9505;50.882;5.350;2023-02-15T06:28:44;-1.70;99.90
18753;DHT22;9505;50.882;5.350;2023-02-15T06:31:09;-1.80;99.90
18753;DHT22;9505;50.882;5.350;2023-02-15T06:33:35;-1.80;99.90
18753;DHT22;9505;50.882;5.350;2023-02-15T06:36:01;-1.80;99.90
18753;DHT22;9505;50.882;5.350;2023-02-15T06:38:27;-1.80;99.90
18753;DHT22;9505;50.882;5.350;2023-02-15T06:40:53;-1.90;99.90
18753;DHT22;9505;50.882;5.350;2023-02-15T06:43:18;-1.90;99.90
18753;DHT22;9505;50.882;5.350;2023-02-15T06:45:44;-1.90;99.90
18753;DHT22;9505;50.882;5.350;2023-02-15T06:48:10;-1.90;99.90
18753;DHT22;9505;50.882;5.350;2023-02-15T06:50:36;-1.90;99.90
18753;DHT22;9505;50.882;5.350;2023-02-15T06:53:02;-1.80;99.90
18753;DHT22;9505;50.882;5.350;2023-02-15T06:55:28;-1.80;99.90
18753;DHT22;9505;50.882;5.350;2023-02-15T06:57:53;-1.80;99.90
18753;DHT22;9505;50.882;5.350;2023-02-15T07:00:19;-1.80;99.90
18753;DHT22;9505;50.882;5.350;2023-02-15T07:02:45;-1.80;99.90
18753;DHT22;9505;50.882;5.350;2023-02-15T07:05:11;-1.70;99.90
18753;DHT22;9505;50.882;5.350;2023-02-15T07:07:37;-1.70;99.90
18753;DHT22;9505;50.882;5.350;2023-02-15T07:10:03;-1.70;99.90
18753;DHT22;9505;50.882;5.350;2023-02-15T07:12:29;-1.60;99.90
18753;DHT22;9505;50.882;5.350;2023-02-15T07:15:07;-1.50;99.90
18753;DHT22;9505;50.882;5.350;2023-02-15T07:17:34;-1.50;99.90
18753;DHT22;9505;50.882;5.350;2023-02-15T07:20:00;-1.30;99.90
18753;DHT22;9505;50.882;5.350;2023-02-15T07:22:26;-1.30;99.90
18753;DHT22;9505;50.882;5.350;2023-02-15T07:24:53;-1.30;99.90
18753;DHT22;9505;50.882;5.350;2023-02-15T07:27:20;-1.10;99.90
18753;DHT22;9505;50.882;5.350;2023-02-15T07:29:46;-1.00;99.90
18753;DHT22;9505;50.882;5.350;2023-02-15T07:32:12;-0.90;99.90
18753;DHT22;9505;50.882;5.350;2023-02-15T07:34:37;-0.80;99.90
18753;DHT22;9505;50.882;5.350;2023-02-15T07:37:03;-0.70;99.90
18753;DHT22;9505;50.882;5.350;2023-02-15T07:39:29;-0.60;99.90
18753;DHT22;9505;50.882;5.350;2023-02-15T07:41:55;-0.50;99.90
18753;DHT22;9505;50.882;5.350;2023-02-15T07:44:21;-0.30;99.90
18753;DHT22;9505;50.882;5.350;2023-02-15T07:46:46;-0.30;99.90
18753;DHT22;9505;50.882;5.350;2023-02-15T07:49:12;-0.20;99.90
18753;DHT22;9505;50.882;5.350;2023-02-15T07:51:37;0.00;99.90
18753;DHT22;9505;50.882;5.350;2023-02-15T07:54:03;0.20;99.90
18753;DHT22;9505;50.882;5.350;2023-02-15T07:56:29;0.40;99.90
18753;DHT22;9505;50.882;5.350;2023-02-15T07:58:54;0.60;99.90
18753;DHT22;9505;50.882;5.350;2023-02-15T08:01:41;0.80;99.90
18753;DHT22;9505;50.882;5.350;2023-02-15T08:04:07;1.10;99.90
18753;DHT22;9505;50.882;5.350;2023-02-15T08:06:35;1.30;99.90
18753;DHT22;9505;50.882;5.350;2023-02-15T08:09:07;1.40;99.90
18753;DHT22;9505;50.882;5.350;2023-02-15T08:11:35;1.50;99.90
18753;DHT22;9505;50.882;5.350;2023-02-15T08:14:17;1.60;99.90
18753;DHT22;9505;50.882;5.350;2023-02-15T08:16:48;1.90;99.90
18753;DHT22;9505;50.882;5.350;2023-02-15T08:21:49;2.40;99.90
18753;DHT22;9505;50.882;5.350;2023-02-15T08:24:18;2.70;99.90
18753;DHT22;9505;50.882;5.350;2023-02-15T08:26:44;2.90;99.90
18753;DHT22;9505;50.882;5.350;2023-02-15T08:29:18;3.20;99.90
18753;DHT22;9505;50.882;5.350;2023-02-15T08:31:44;3.60;99.90
18753;DHT22;9505;50.882;5.350;2023-02-15T08:34:12;3.70;99.90
18753;DHT22;9505;50.882;5.350;2023-02-15T08:36:38;3.60;99.90
18753;DHT22;9505;50.882;5.350;2023-02-15T08:39:05;3.80;99.90
18753;DHT22;9505;50.882;5.350;2023-02-15T08:41:35;4.00;99.90
18753;DHT22;9505;50.882;5.350;2023-02-15T08:44:04;4.50;99.90
18753;DHT22;9505;50.882;5.350;2023-02-15T08:46:33;4.80;99.90
18753;DHT22;9505;50.882;5.350;2023-02-15T08:48:59;4.80;99.90
18753;DHT22;9505;50.882;5.350;2023-02-15T08:51:32;4.90;99.90
18753;DHT22;9505;50.882;5.350;2023-02-15T08:54:00;5.10;99.90
18753;DHT22;9505;50.882;5.350;2023-02-15T08:56:28;5.40;99.90
18753;DHT22;9505;50.882;5.350;2023-02-15T08:58:55;6.00;99.90
18753;DHT22;9505;50.882;5.350;2023-02-15T09:01:23;6.70;99.90
18753;DHT22;9505;50.882;5.350;2023-02-15T09:03:56;7.10;99.90
18753;DHT22;9505;50.882;5.350;2023-02-15T09:06:22;7.50;99.90
18753;DHT22;9505;50.882;5.350;2023-02-15T09:08:49;8.20;99.90
18753;DHT22;9505;50.882;5.350;2023-02-15T09:11:20;8.90;99.90
18753;DHT22;9505;50.882;5.350;2023-02-15T09:14:04;9.20;99.90
18753;DHT22;9505;50.882;5.350;2023-02-15T09:16:32;9.60;99.90
18753;DHT22;9505;50.882;5.350;2023-02-15T09:18:58;9.80;99.90
18753;DHT22;9505;50.882;5.350;2023-02-15T09:21:25;10.10;99.90
18753;DHT22;9505;50.882;5.350;2023-02-15T09:23:56;10.30;99.90
18753;DHT22;9505;50.882;5.350;2023-02-15T09:26:23;10.20;99.90
18753;DHT22;9505;50.882;5.350;2023-02-15T09:28:53;10.20;99.90
18753;DHT22;9505;50.882;5.350;2023-02-15T09:31:22;10.40;99.90
18753;DHT22;9505;50.882;5.350;2023-02-15T09:33:48;10.60;99.90
18753;DHT22;9505;50.882;5.350;2023-02-15T09:38:39;11.70;99.90
18753;DHT22;9505;50.882;5.350;2023-02-15T09:50:26;12.90;99.90
18753;DHT22;9505;50.882;5.350;2023-02-15T09:55:35;13.20;99.90
18753;DHT22;9505;50.882;5.350;2023-02-15T09:58:07;13.30;99.90
18753;DHT22;9505;50.882;5.350;2023-02-15T10:06:31;13.00;99.90
18753;DHT22;9505;50.882;5.350;2023-02-15T10:14:31;13.40;99.90
18753;DHT22;9505;50.882;5.350;2023-02-15T10:27:50;14.20;99.90
18753;DHT22;9505;50.882;5.350;2023-02-15T10:36:23;13.50;99.90
18753;DHT22;9505;50.882;5.350;2023-02-15T10:38:58;13.50;99.90
18753;DHT22;9505;50.882;5.350;2023-02-15T10:47:15;14.10;99.90
18753;DHT22;9505;50.882;5.350;2023-02-15T11:01:38;14.40;99.90
18753;DHT22;9505;50.882;5.350;2023-02-15T11:06:59;14.90;99.90
18753;DHT22;9505;50.882;5.350;2023-02-15T11:09:33;15.00;99.90
18753;DHT22;9505;50.882;5.350;2023-02-15T11:12:02;15.10;99.90
18753;DHT22;9505;50.882;5.350;2023-02-15T11:14:38;15.20;99.90
18753;DHT22;9505;50.882;5.350;2023-02-15T11:17:12;15.40;99.90
18753;DHT22;9505;50.882;5.350;2023-02-15T11:22:30;15.30;99.90
18753;DHT22;9505;50.882;5.350;2023-02-15T11:24:58;15.20;99.90
18753;DHT22;9505;50.882;5.350;2023-02-15T11:27:28;15.30;99.90
18753;DHT22;9505;50.882;5.350;2023-02-15T11:30:04;15.40;99.90
18753;DHT22;9505;50.882;5.350;2023-02-15T11:32:37;15.30;99.90
18753;DHT22;9505;50.882;5.350;2023-02-15T11:37:51;15.40;99.90
18753;DHT22;9505;50.882;5.350;2023-02-15T11:40:39;15.10;99.90
18753;DHT22;9505;50.882;5.350;2023-02-15T11:43:13;15.50;99.90
18753;DHT22;9505;50.882;5.350;2023-02-15T11:45:42;15.60;99.90
18753;DHT22;9505;50.882;5.350;2023-02-15T11:48:13;15.90;99.90
18753;DHT22;9505;50.882;5.350;2023-02-15T11:50:41;16.00;99.90
18753;DHT22;9505;50.882;5.350;2023-02-15T11:53:12;16.10;99.90
18753;DHT22;9505;50.882;5.350;2023-02-15T11:55:38;16.10;99.90
18753;DHT22;9505;50.882;5.350;2023-02-15T12:00:44;16.60;99.90
18753;DHT22;9505;50.882;5.350;2023-02-15T12:03:43;16.40;99.90
18753;DHT22;9505;50.882;5.350;2023-02-15T12:06:28;16.00;99.90
18753;DHT22;9505;50.882;5.350;2023-02-15T12:09:46;15.90;99.90
18753;DHT22;9505;50.882;5.350;2023-02-15T12:11:47;15.40;99.90
18753;DHT22;9505;50.882;5.350;2023-02-15T12:14:13;15.50;99.90
18753;DHT22;9505;50.882;5.350;2023-02-15T12:16:50;15.40;99.90
18753;DHT22;9505;50.882;5.350;2023-02-15T12:19:33;15.80;99.90
18753;DHT22;9505;50.882;5.350;2023-02-15T12:22:03;15.70;99.90
18753;DHT22;9505;50.882;5.350;2023-02-15T12:24:33;15.80;99.90
18753;DHT22;9505;50.882;5.350;2023-02-15T12:29:28;16.10;99.90
18753;DHT22;9505;50.882;5.350;2023-02-15T12:31:56;16.20;99.90
18753;DHT22;9505;50.882;5.350;2023-02-15T12:34:26;16.30;99.90
18753;DHT22;9505;50.882;5.350;2023-02-15T12:36:56;16.50;99.90
18753;DHT22;9505;50.882;5.350;2023-02-15T12:39:27;16.80;99.90
18753;DHT22;9505;50.882;5.350;2023-02-15T12:44:21;16.60;99.90
18753;DHT22;9505;50.882;5.350;2023-02-15T12:49:21;16.80;99.90
18753;DHT22;9505;50.882;5.350;2023-02-15T12:54:29;17.10;99.90
18753;DHT22;9505;50.882;5.350;2023-02-15T12:56:55;16.80;99.90
18753;DHT22;9505;50.882;5.350;2023-02-15T12:59:23;16.60;99.90
18753;DHT22;9505;50.882;5.350;2023-02-15T13:01:52;16.60;99.90
18753;DHT22;9505;50.882;5.350;2023-02-15T13:04:21;16.80;99.90
18753;DHT22;9505;50.882;5.350;2023-02-15T13:06:53;16.80;99.90
18753;DHT22;9505;50.882;5.350;2023-02-15T13:11:46;17.10;99.90
18753;DHT22;9505;50.882;5.350;2023-02-15T13:14:19;17.10;99.90
18753;DHT22;9505;50.882;5.350;2023-02-15T13:16:47;17.10;99.90
18753;DHT22;9505;50.882;5.350;2023-02-15T13:19:19;16.90;99.90
18753;DHT22;9505;50.882;5.350;2023-02-15T13:21:51;16.90;99.90
18753;DHT22;9505;50.882;5.350;2023-02-15T13:24:46;16.80;99.90
18753;DHT22;9505;50.882;5.350;2023-02-15T13:27:27;16.80;99.90
18753;DHT22;9505;50.882;5.350;2023-02-15T13:29:57;16.80;99.90
18753;DHT22;9505;50.882;5.350;2023-02-15T13:32:35;16.80;99.90
18753;DHT22;9505;50.882;5.350;2023-02-15T13:35:04;16.60;99.90
18753;DHT22;9505;50.882;5.350;2023-02-15T13:40:37;16.40;99.90
18753;DHT22;9505;50.882;5.350;2023-02-15T13:53:33;17.00;99.90
18753;DHT22;9505;50.882;5.350;2023-02-15T14:01:57;16.40;99.90
18753;DHT22;9505;50.882;5.350;2023-02-15T14:04:32;16.30;99.90
18753;DHT22;9505;50.882;5.350;2023-02-15T14:18:25;16.80;99.90
18753;DHT22;9505;50.882;5.350;2023-02-15T14:21:10;16.60;99.90
18753;DHT22;9505;50.882;5.350;2023-02-15T14:32:10;16.10;99.90
18753;DHT22;9505;50.882;5.350;2023-02-15T14:37:21;16.40;99.90
18753;DHT22;9505;50.882;5.350;2023-02-15T14:40:06;16.40;99.90
18753;DHT22;9505;50.882;5.350;2023-02-15T14:43:05;16.10;99.90
18753;DHT22;9505;50.882;5.350;2023-02-15T14:45:41;16.00;99.90
18753;DHT22;9505;50.882;5.350;2023-02-15T14:48:19;15.80;99.90
18753;DHT22;9505;50.882;5.350;2023-02-15T14:50:47;15.50;99.90
18753;DHT22;9505;50.882;5.350;2023-02-15T14:56:19;15.20;99.90
18753;DHT22;9505;50.882;5.350;2023-02-15T15:03:54;15.10;99.90
18753;DHT22;9505;50.882;5.350;2023-02-15T15:06:30;15.30;99.90
18753;DHT22;9505;50.882;5.350;2023-02-15T15:11:41;14.80;99.90
18753;DHT22;9505;50.882;5.350;2023-02-15T15:14:08;14.70;99.90
18753;DHT22;9505;50.882;5.350;2023-02-15T15:19:04;14.90;99.90
18753;DHT22;9505;50.882;5.350;2023-02-15T15:49:32;13.80;99.90
18753;DHT22;9505;50.882;5.350;2023-02-15T15:52:07;13.70;99.90
18753;DHT22;9505;50.882;5.350;2023-02-15T15:54:34;13.70;99.90
18753;DHT22;9505;50.882;5.350;2023-02-15T15:57:04;13.70;99.90
18753;DHT22;9505;50.882;5.350;2023-02-15T15:59:33;13.60;99.90
18753;DHT22;9505;50.882;5.350;2023-02-15T16:02:07;13.60;99.90
18753;DHT22;9505;50.882;5.350;2023-02-15T16:04:33;13.50;99.90
18753;DHT22;9505;50.882;5.350;2023-02-15T16:12:20;13.20;99.90
18753;DHT22;9505;50.882;5.350;2023-02-15T16:14:47;13.00;99.90
18753;DHT22;9505;50.882;5.350;2023-02-15T16:17:24;12.90;99.90
18753;DHT22;9505;50.882;5.350;2023-02-15T16:19:50;12.80;99.90
18753;DHT22;9505;50.882;5.350;2023-02-15T16:22:23;12.70;99.90
18753;DHT22;9505;50.882;5.350;2023-02-15T16:27:32;12.50;99.90
18753;DHT22;9505;50.882;5.350;2023-02-15T16:32:42;12.30;99.90
18753;DHT22;9505;50.882;5.350;2023-02-15T16:35:18;12.20;99.90
18753;DHT22;9505;50.882;5.350;2023-02-15T16:37:45;12.10;99.90
18753;DHT22;9505;50.882;5.350;2023-02-15T16:40:36;11.90;99.90
18753;DHT22;9505;50.882;5.350;2023-02-15T16:43:06;11.70;99.90
18753;DHT22;9505;50.882;5.350;2023-02-15T16:45:37;11.60;99.90
18753;DHT22;9505;50.882;5.350;2023-02-15T16:48:08;11.40;99.90
18753;DHT22;9505;50.882;5.350;2023-02-15T16:50:37;11.40;99.90
18753;DHT22;9505;50.882;5.350;2023-02-15T16:53:06;11.30;99.90
18753;DHT22;9505;50.882;5.350;2023-02-15T16:55:39;11.30;99.90
18753;DHT22;9505;50.882;5.350;2023-02-15T16:58:11;11.20;99.90
18753;DHT22;9505;50.882;5.350;2023-02-15T17:00:39;11.10;99.90
18753;DHT22;9505;50.882;5.350;2023-02-15T17:03:33;11.00;99.90
18753;DHT22;9505;50.882;5.350;2023-02-15T17:06:01;10.90;99.90
18753;DHT22;9505;50.882;5.350;2023-02-15T17:08:34;10.80;99.90
18753;DHT22;9505;50.882;5.350;2023-02-15T17:13:34;10.70;99.90
18753;DHT22;9505;50.882;5.350;2023-02-15T17:18:40;10.50;99.90
18753;DHT22;9505;50.882;5.350;2023-02-15T17:21:23;10.40;99.90
18753;DHT22;9505;50.882;5.350;2023-02-15T17:23:51;10.30;99.90
18753;DHT22;9505;50.882;5.350;2023-02-15T17:26:35;10.20;99.90
18753;DHT22;9505;50.882;5.350;2023-02-15T17:29:23;10.00;99.90
18753;DHT22;9505;50.882;5.350;2023-02-15T17:31:51;9.90;99.90
18753;DHT22;9505;50.882;5.350;2023-02-15T17:34:44;9.80;99.90
18753;DHT22;9505;50.882;5.350;2023-02-15T17:37:22;9.70;99.90
18753;DHT22;9505;50.882;5.350;2023-02-15T17:39:48;9.60;99.90
18753;DHT22;9505;50.882;5.350;2023-02-15T17:42:14;9.50;99.90
18753;DHT22;9505;50.882;5.350;2023-02-15T17:44:39;9.40;99.90
18753;DHT22;9505;50.882;5.350;2023-02-15T17:47:05;9.40;99.90
18753;DHT22;9505;50.882;5.350;2023-02-15T17:49:31;9.20;99.90
18753;DHT22;9505;50.882;5.350;2023-02-15T17:52:01;9.10;99.90
18753;DHT22;9505;50.882;5.350;2023-02-15T17:54:27;9.00;99.90
18753;DHT22;9505;50.882;5.350;2023-02-15T17:57:13;9.00;99.90
18753;DHT22;9505;50.882;5.350;2023-02-15T17:59:39;8.90;99.90
18753;DHT22;9505;50.882;5.350;2023-02-15T18:02:23;8.80;99.90
18753;DHT22;9505;50.882;5.350;2023-02-15T18:05:13;8.70;99.90
18753;DHT22;9505;50.882;5.350;2023-02-15T18:07:58;8.60;99.90
18753;DHT22;9505;50.882;5.350;2023-02-15T18:10:42;8.50;99.90
18753;DHT22;9505;50.882;5.350;2023-02-15T18:13:26;8.40;99.90
18753;DHT22;9505;50.882;5.350;2023-02-15T18:15:52;8.20;99.90
18753;DHT22;9505;50.882;5.350;2023-02-15T18:18:17;7.80;99.90
18753;DHT22;9505;50.882;5.350;2023-02-15T18:20:43;7.60;99.90
18753;DHT22;9505;50.882;5.350;2023-02-15T18:23:14;7.30;99.90
18753;DHT22;9505;50.882;5.350;2023-02-15T18:25:40;7.10;99.90
18753;DHT22;9505;50.882;5.350;2023-02-15T18:28:07;6.90;99.90
18753;DHT22;9505;50.882;5.350;2023-02-15T18:30:35;6.80;99.90
18753;DHT22;9505;50.882;5.350;2023-02-15T18:33:05;6.70;99.90
18753;DHT22;9505;50.882;5.350;2023-02-15T18:35:31;6.60;99.90
18753;DHT22;9505;50.882;5.350;2023-02-15T18:37:58;6.60;99.90
18753;DHT22;9505;50.882;5.350;2023-02-15T18:40:26;6.60;99.90
18753;DHT22;9505;50.882;5.350;2023-02-15T18:42:52;6.60;99.90
18753;DHT22;9505;50.882;5.350;2023-02-15T18:45:26;6.70;99.90
18753;DHT22;9505;50.882;5.350;2023-02-15T18:47:57;6.70;99.90
18753;DHT22;9505;50.882;5.350;2023-02-15T18:50:29;6.70;99.90
18753;DHT22;9505;50.882;5.350;2023-02-15T18:52:55;6.60;99.90
18753;DHT22;9505;50.882;5.350;2023-02-15T18:55:23;6.60;99.90
18753;DHT22;9505;50.882;5.350;2023-02-15T18:57:51;6.70;99.90
18753;DHT22;9505;50.882;5.350;2023-02-15T19:00:25;6.70;99.90
18753;DHT22;9505;50.882;5.350;2023-02-15T19:02:52;6.70;99.90
18753;DHT22;9505;50.882;5.350;2023-02-15T19:05:19;6.60;99.90
18753;DHT22;9505;50.882;5.350;2023-02-15T19:07:44;6.40;99.90
18753;DHT22;9505;50.882;5.350;2023-02-15T19:10:15;6.30;99.90
18753;DHT22;9505;50.882;5.350;2023-02-15T19:12:41;6.10;99.90
18753;DHT22;9505;50.882;5.350;2023-02-15T19:15:21;5.90;99.90
18753;DHT22;9505;50.882;5.350;2023-02-15T19:17:47;5.90;99.90
18753;DHT22;9505;50.882;5.350;2023-02-15T19:20:21;5.80;99.90
18753;DHT22;9505;50.882;5.350;2023-02-15T19:22:49;5.70;99.90
18753;DHT22;9505;50.882;5.350;2023-02-15T19:25:21;5.70;99.90
18753;DHT22;9505;50.882;5.350;2023-02-15T19:27:47;5.80;99.90
18753;DHT22;9505;50.882;5.350;2023-02-15T19:30:18;5.90;99.90
18753;DHT22;9505;50.882;5.350;2023-02-15T19:32:45;6.10;99.90
18753;DHT22;9505;50.882;5.350;2023-02-15T19:35:15;6.30;99.90
18753;DHT22;9505;50.882;5.350;2023-02-15T19:37:43;6.40;99.90
18753;DHT22;9505;50.882;5.350;2023-02-15T19:40:22;6.60;99.90
18753;DHT22;9505;50.882;5.350;2023-02-15T19:42:48;6.70;99.90
18753;DHT22;9505;50.882;5.350;2023-02-15T19:45:19;6.80;99.90
18753;DHT22;9505;50.882;5.350;2023-02-15T19:47:45;6.70;99.90